OOCL Hamburg — VRZK9 — position and weather

sailwx.info

Track history (hours):
 
Tides and Currents Weather Stations Pressure Air Temp Water Temp Dewpoint Dewpoint Depression Visibility Wind Speed Wind Dir Waves Ship Positions

OOCL Hamburg

Last reported at 2015-May-17 02:32 UTC. Time now 2015-May-24 21:26 UTC.
Position N 02°03' E 102°08'.

Length 323 m; beam 42.8 m; draft 14.5 m.

Type: Cargo ship. MMSI: 477702000.

Date/timePositionNaut miles runAvg speedWind from/ knotsBaromVisibWave heightAir tempDewpointWater temp
2015-May-17 02:32N 02°03' E 102°08'1818.4
2015-May-17 01:33N 01°53' E 102°23'1818.0
2015-May-17 00:33N 01°45' E 102°39'7418.4
2015-May-16 20:32N 01°09' E 103°43'1010.2
2015-May-16 19:33N 01°14' E 103°52'2 1.7
2015-May-16 18:33N 01°16' E 103°51'0 0.0
2015-May-16 17:28N 01°16' E 103°51'0 0.0
2015-May-16 16:28N 01°16' E 103°51'0 0.0
2015-May-16 15:28N 01°16' E 103°51'0 0.0
2015-May-16 14:28N 01°16' E 103°51'0 0.0
2015-May-16 13:28N 01°16' E 103°51'0 0.0
2015-May-16 12:28N 01°16' E 103°51'0 0.0
2015-May-16 11:31N 01°16' E 103°51'0 0.0
2015-May-16 10:28N 01°16' E 103°51'0 0.0
2015-May-16 09:31N 01°16' E 103°51'0 0.0
2015-May-16 08:31N 01°16' E 103°51'0 0.0
2015-May-16 07:28N 01°16' E 103°51'0 0.0
2015-May-16 06:31N 01°16' E 103°51'0 0.0
2015-May-16 05:22N 01°16' E 103°51'0 0.0
2015-May-16 03:28N 01°16' E 103°51'0 0.0
2015-May-16 02:31N 01°16' E 103°51'0 0.0
2015-May-16 01:28N 01°16' E 103°51'0 0.0
2015-May-16 00:28N 01°16' E 103°51'0 0.0
2015-May-15 23:28N 01°16' E 103°51'0 0.0
2015-May-15 22:31N 01°16' E 103°51'0 0.0
2015-May-15 21:31N 01°16' E 103°51'0 0.0
2015-May-15 20:31N 01°16' E 103°51'0 0.0
2015-May-15 19:31N 01°16' E 103°51'0 0.0
2015-May-15 18:28N 01°16' E 103°51'0 0.0
2015-May-15 17:31N 01°16' E 103°51'0 0.0
2015-May-15 16:33N 01°16' E 103°51'2 1.7
2015-May-15 15:33N 01°15' E 103°52'8 7.6
2015-May-15 14:29N 01°16' E 103°60'1314.3
2015-May-15 13:33N 01°18' E 104°13'  
2015-May-12 14:24N 21°46' E 114°20'1719.7
2015-May-12 13:34N 22°02' E 114°24'1616.0
2015-May-12 12:33N 22°17' E 114°31'2014.5
2015-May-12 11:11N 22°34' E 114°19'3 0.2
2015-May-11 19:22N 22°34' E 114°16'0 0.0
2015-May-11 18:34N 22°34' E 114°16'0 0.0
2015-May-11 17:16N 22°34' E 114°16'0 0.0
2015-May-11 16:34N 22°34' E 114°16'0 0.0
2015-May-11 15:25N 22°34' E 114°16'2210.0
2015-May-11 13:14N 22°18' E 114°31'1015.3
2015-May-11 12:33N 22°08' E 114°26'1614.9
2015-May-11 11:30N 22°12' E 114°10'1110.7
2015-May-11 10:28N 22°21' E 114°03'9 9.7
2015-May-11 09:33N 22°23' E 113°54'3 3.3
2015-May-11 08:33N 22°27' E 113°53'0 0.0
2015-May-11 07:30N 22°27' E 113°53'0 0.0
2015-May-11 06:33N 22°27' E 113°53'0 0.0
2015-May-11 05:33N 22°27' E 113°53'0 0.0
2015-May-11 04:33N 22°27' E 113°53'0 0.0
2015-May-11 03:30N 22°27' E 113°53'0 0.0
2015-May-11 02:33N 22°27' E 113°53'0 0.0
2015-May-11 01:30N 22°27' E 113°53'0 0.0
2015-May-11 00:33N 22°27' E 113°53'0 0.0
2015-May-10 23:30N 22°27' E 113°53'0 0.0
2015-May-10 22:30N 22°27' E 113°53'0 0.0
2015-May-10 21:24N 22°27' E 113°53'0 0.0
2015-May-10 20:24N 22°27' E 113°53'0 0.0
2015-May-10 19:30N 22°27' E 113°53'0 0.0
2015-May-10 18:30N 22°27' E 113°53'4 4.0
2015-May-10 17:33N 22°23' E 113°54'1212.5
2015-May-10 16:33N 22°20' E 114°07'1 1.2
2015-May-10 15:27N 22°21' E 114°07'0 0.0
2015-May-10 13:18N 22°21' E 114°07'0 0.0
2015-May-10 12:24N 22°21' E 114°07'0 0.0
2015-May-10 11:30N 22°21' E 114°07'0 0.0
2015-May-10 10:24N 22°21' E 114°07'0 0.0
2015-May-10 09:33N 22°21' E 114°07'0 0.0
2015-May-10 08:27N 22°21' E 114°07'0 0.0
2015-May-10 07:30N 22°21' E 114°07'0 0.0
2015-May-10 06:30N 22°21' E 114°07'0 0.0
2015-May-10 05:30N 22°21' E 114°07'0 0.0
2015-May-10 04:30N 22°21' E 114°07'0 0.0
2015-May-10 03:27N 22°21' E 114°07'0 0.0
2015-May-10 02:30N 22°21' E 114°07'0 0.0
2015-May-10 01:33N 22°21' E 114°07'0 0.0
2015-May-10 00:33N 22°21' E 114°07'0 0.0
2015-May-09 23:33N 22°21' E 114°07'3 2.7
2015-May-09 22:34N 22°19' E 114°06'1110.2
2015-May-09 21:29N 22°10' E 114°13'1112.0
2015-May-09 20:33N 22°06' E 114°24'2117.8
2015-May-09 19:23N 21°45' E 114°20'  
Track history (hours):
 
Tides and Currents Weather Stations Pressure Air Temp Water Temp Dewpoint Dewpoint Depression Visibility Wind Speed Wind Dir Waves Ship Positions

OOCL Hamburg

Last reported at 2015-May-17 02:32 UTC. Time now 2015-May-24 21:26 UTC.
Position N 02°03' E 102°08'.

Length 323 m; beam 42.8 m; draft 14.5 m.

Type: Cargo ship. MMSI: 477702000.

Date/timePositionNaut miles runAvg speedWind from/ knotsBaromVisibWave heightAir tempDewpointWater temp
2015-May-17 02:32N 02°03' E 102°08'1818.4
2015-May-17 01:33N 01°53' E 102°23'1818.0
2015-May-17 00:33N 01°45' E 102°39'7418.4
2015-May-16 20:32N 01°09' E 103°43'1010.2
2015-May-16 19:33N 01°14' E 103°52'2 1.7
2015-May-16 18:33N 01°16' E 103°51'0 0.0
2015-May-16 17:28N 01°16' E 103°51'0 0.0
2015-May-16 16:28N 01°16' E 103°51'0 0.0
2015-May-16 15:28N 01°16' E 103°51'0 0.0
2015-May-16 14:28N 01°16' E 103°51'0 0.0
2015-May-16 13:28N 01°16' E 103°51'0 0.0
2015-May-16 12:28N 01°16' E 103°51'0 0.0
2015-May-16 11:31N 01°16' E 103°51'0 0.0
2015-May-16 10:28N 01°16' E 103°51'0 0.0
2015-May-16 09:31N 01°16' E 103°51'0 0.0
2015-May-16 08:31N 01°16' E 103°51'0 0.0
2015-May-16 07:28N 01°16' E 103°51'0 0.0
2015-May-16 06:31N 01°16' E 103°51'0 0.0
2015-May-16 05:22N 01°16' E 103°51'0 0.0
2015-May-16 03:28N 01°16' E 103°51'0 0.0
2015-May-16 02:31N 01°16' E 103°51'0 0.0
2015-May-16 01:28N 01°16' E 103°51'0 0.0
2015-May-16 00:28N 01°16' E 103°51'0 0.0
2015-May-15 23:28N 01°16' E 103°51'0 0.0
2015-May-15 22:31N 01°16' E 103°51'0 0.0
2015-May-15 21:31N 01°16' E 103°51'0 0.0
2015-May-15 20:31N 01°16' E 103°51'0 0.0
2015-May-15 19:31N 01°16' E 103°51'0 0.0
2015-May-15 18:28N 01°16' E 103°51'0 0.0
2015-May-15 17:31N 01°16' E 103°51'0 0.0
2015-May-15 16:33N 01°16' E 103°51'2 1.7
2015-May-15 15:33N 01°15' E 103°52'8 7.6
2015-May-15 14:29N 01°16' E 103°60'1314.3
2015-May-15 13:33N 01°18' E 104°13'  
2015-May-12 14:24N 21°46' E 114°20'1719.7
2015-May-12 13:34N 22°02' E 114°24'1616.0
2015-May-12 12:33N 22°17' E 114°31'2014.5
2015-May-12 11:11N 22°34' E 114°19'3 0.2
2015-May-11 19:22N 22°34' E 114°16'0 0.0
2015-May-11 18:34N 22°34' E 114°16'0 0.0
2015-May-11 17:16N 22°34' E 114°16'0 0.0
2015-May-11 16:34N 22°34' E 114°16'0 0.0
2015-May-11 15:25N 22°34' E 114°16'2210.0
2015-May-11 13:14N 22°18' E 114°31'1015.3
2015-May-11 12:33N 22°08' E 114°26'1614.9
2015-May-11 11:30N 22°12' E 114°10'1110.7
2015-May-11 10:28N 22°21' E 114°03'9 9.7
2015-May-11 09:33N 22°23' E 113°54'3 3.3
2015-May-11 08:33N 22°27' E 113°53'0 0.0
2015-May-11 07:30N 22°27' E 113°53'0 0.0
2015-May-11 06:33N 22°27' E 113°53'0 0.0
2015-May-11 05:33N 22°27' E 113°53'0 0.0
2015-May-11 04:33N 22°27' E 113°53'0 0.0
2015-May-11 03:30N 22°27' E 113°53'0 0.0
2015-May-11 02:33N 22°27' E 113°53'0 0.0
2015-May-11 01:30N 22°27' E 113°53'0 0.0
2015-May-11 00:33N 22°27' E 113°53'0 0.0
2015-May-10 23:30N 22°27' E 113°53'0 0.0
2015-May-10 22:30N 22°27' E 113°53'0 0.0
2015-May-10 21:24N 22°27' E 113°53'0 0.0
2015-May-10 20:24N 22°27' E 113°53'0 0.0
2015-May-10 19:30N 22°27' E 113°53'0 0.0
2015-May-10 18:30N 22°27' E 113°53'4 4.0
2015-May-10 17:33N 22°23' E 113°54'1212.5
2015-May-10 16:33N 22°20' E 114°07'1 1.2
2015-May-10 15:27N 22°21' E 114°07'0 0.0
2015-May-10 13:18N 22°21' E 114°07'0 0.0
2015-May-10 12:24N 22°21' E 114°07'0 0.0
2015-May-10 11:30N 22°21' E 114°07'0 0.0
2015-May-10 10:24N 22°21' E 114°07'0 0.0
2015-May-10 09:33N 22°21' E 114°07'0 0.0
2015-May-10 08:27N 22°21' E 114°07'0 0.0
2015-May-10 07:30N 22°21' E 114°07'0 0.0
2015-May-10 06:30N 22°21' E 114°07'0 0.0
2015-May-10 05:30N 22°21' E 114°07'0 0.0
2015-May-10 04:30N 22°21' E 114°07'0 0.0
2015-May-10 03:27N 22°21' E 114°07'0 0.0
2015-May-10 02:30N 22°21' E 114°07'0 0.0
2015-May-10 01:33N 22°21' E 114°07'0 0.0
2015-May-10 00:33N 22°21' E 114°07'0 0.0
2015-May-09 23:33N 22°21' E 114°07'3 2.7
2015-May-09 22:34N 22°19' E 114°06'1110.2
2015-May-09 21:29N 22°10' E 114°13'1112.0
2015-May-09 20:33N 22°06' E 114°24'2117.8
2015-May-09 19:23N 21°45' E 114°20'  

Dump ship's entire track history